<?xml version="1.0" encoding="utf-8"?>
<gpx xmlns:xsi="http://www.w3.org/2001/XMLSchema-instance" xmlns:xsd="http://www.w3.org/2001/XMLSchema" version="1.1" creator="Shapelink.com" xmlns="http://www.topografix.com/GPX/1/1" xmlns:gpxtpx="http://www.garmin.com/xmlschemas/TrackPointExtension/v1">
  <metadata>
    <name>Gåing 4.03 km, 2012-03-13</name>
    <desc></desc>
    <author><name>Mikael Blom</name></author> 
    <time>2012-03-13T14:34:34Z</time>
  </metadata>
  <trk>
    <name>Gåing 4.03 km, 2012-03-13</name>
    <trkseg>
      <trkpt lat="59.9785251" lon="17.7393636">
        <ele>43.3966</ele>
        <time>2012-03-13T14:34:34Z</time>
      </trkpt>
      <trkpt lat="59.9784678" lon="17.7393139">
        <ele>30.8995</ele>
        <time>2012-03-13T14:34:38Z</time>
      </trkpt>
      <trkpt lat="59.9783713" lon="17.739303">
        <ele>31.3801</ele>
        <time>2012-03-13T14:34:44Z</time>
      </trkpt>
      <trkpt lat="59.9782476" lon="17.7392945">
        <ele>34.7449</ele>
        <time>2012-03-13T14:34:51Z</time>
      </trkpt>
      <trkpt lat="59.9782114" lon="17.7392744">
        <ele>36.1868</ele>
        <time>2012-03-13T14:34:54Z</time>
      </trkpt>
      <trkpt lat="59.9781602" lon="17.73923">
        <ele>39.0707</ele>
        <time>2012-03-13T14:34:59Z</time>
      </trkpt>
      <trkpt lat="59.9780516" lon="17.7392388">
        <ele>40.5128</ele>
        <time>2012-03-13T14:35:05Z</time>
      </trkpt>
      <trkpt lat="59.977957" lon="17.7391896">
        <ele>42.916</ele>
        <time>2012-03-13T14:35:12Z</time>
      </trkpt>
      <trkpt lat="59.9779131" lon="17.7391516">
        <ele>44.358</ele>
        <time>2012-03-13T14:35:16Z</time>
      </trkpt>
      <trkpt lat="59.977838" lon="17.7391176">
        <ele>43.8773</ele>
        <time>2012-03-13T14:35:21Z</time>
      </trkpt>
      <trkpt lat="59.977759" lon="17.7390842">
        <ele>44.358</ele>
        <time>2012-03-13T14:35:27Z</time>
      </trkpt>
      <trkpt lat="59.9776878" lon="17.7390492">
        <ele>43.8773</ele>
        <time>2012-03-13T14:35:32Z</time>
      </trkpt>
      <trkpt lat="59.9776513" lon="17.7390399">
        <ele>43.8773</ele>
        <time>2012-03-13T14:35:35Z</time>
      </trkpt>
      <trkpt lat="59.9776106" lon="17.7390082">
        <ele>43.8773</ele>
        <time>2012-03-13T14:35:39Z</time>
      </trkpt>
      <trkpt lat="59.9774902" lon="17.7390255">
        <ele>43.8773</ele>
        <time>2012-03-13T14:35:47Z</time>
      </trkpt>
      <trkpt lat="59.9774234" lon="17.7390584">
        <ele>40.9934</ele>
        <time>2012-03-13T14:35:52Z</time>
      </trkpt>
      <trkpt lat="59.977342" lon="17.7391197">
        <ele>38.1094</ele>
        <time>2012-03-13T14:35:57Z</time>
      </trkpt>
      <trkpt lat="59.977267" lon="17.73915">
        <ele>33.7834</ele>
        <time>2012-03-13T14:36:03Z</time>
      </trkpt>
      <trkpt lat="59.9772065" lon="17.7391845">
        <ele>33.7834</ele>
        <time>2012-03-13T14:36:08Z</time>
      </trkpt>
      <trkpt lat="59.9771151" lon="17.7392522">
        <ele>32.3416</ele>
        <time>2012-03-13T14:36:14Z</time>
      </trkpt>
      <trkpt lat="59.9769899" lon="17.7393134">
        <ele>36.1868</ele>
        <time>2012-03-13T14:36:21Z</time>
      </trkpt>
      <trkpt lat="59.9768894" lon="17.739338">
        <ele>37.1481</ele>
        <time>2012-03-13T14:36:27Z</time>
      </trkpt>
      <trkpt lat="59.9767854" lon="17.739379">
        <ele>36.6675</ele>
        <time>2012-03-13T14:36:33Z</time>
      </trkpt>
      <trkpt lat="59.9766931" lon="17.7394315">
        <ele>35.7061</ele>
        <time>2012-03-13T14:36:38Z</time>
      </trkpt>
      <trkpt lat="59.9766054" lon="17.7394888">
        <ele>34.2642</ele>
        <time>2012-03-13T14:36:44Z</time>
      </trkpt>
      <trkpt lat="59.9765562" lon="17.7395473">
        <ele>33.7834</ele>
        <time>2012-03-13T14:36:49Z</time>
      </trkpt>
      <trkpt lat="59.9764875" lon="17.7396238">
        <ele>34.2642</ele>
        <time>2012-03-13T14:36:55Z</time>
      </trkpt>
      <trkpt lat="59.9763885" lon="17.7398041">
        <ele>34.2642</ele>
        <time>2012-03-13T14:37:04Z</time>
      </trkpt>
      <trkpt lat="59.9763759" lon="17.7398231">
        <ele>34.2642</ele>
        <time>2012-03-13T14:37:05Z</time>
      </trkpt>
      <trkpt lat="59.9763485" lon="17.7399322">
        <ele>35.2255</ele>
        <time>2012-03-13T14:37:09Z</time>
      </trkpt>
      <trkpt lat="59.9763315" lon="17.7400141">
        <ele>35.7061</ele>
        <time>2012-03-13T14:37:12Z</time>
      </trkpt>
      <trkpt lat="59.9762471" lon="17.7402536">
        <ele>34.7449</ele>
        <time>2012-03-13T14:37:21Z</time>
      </trkpt>
      <trkpt lat="59.9761544" lon="17.7405432">
        <ele>33.7834</ele>
        <time>2012-03-13T14:37:32Z</time>
      </trkpt>
      <trkpt lat="59.9760994" lon="17.7407483">
        <ele>30.8995</ele>
        <time>2012-03-13T14:37:40Z</time>
      </trkpt>
      <trkpt lat="59.9760378" lon="17.7409933">
        <ele>29.4575</ele>
        <time>2012-03-13T14:37:49Z</time>
      </trkpt>
      <trkpt lat="59.9759783" lon="17.7412148">
        <ele>29.4575</ele>
        <time>2012-03-13T14:37:57Z</time>
      </trkpt>
      <trkpt lat="59.9759169" lon="17.741436">
        <ele>28.4962</ele>
        <time>2012-03-13T14:38:05Z</time>
      </trkpt>
      <trkpt lat="59.9758594" lon="17.7416579">
        <ele>28.4962</ele>
        <time>2012-03-13T14:38:13Z</time>
      </trkpt>
      <trkpt lat="59.9758113" lon="17.7418523">
        <ele>28.9769</ele>
        <time>2012-03-13T14:38:20Z</time>
      </trkpt>
      <trkpt lat="59.9757625" lon="17.7420465">
        <ele>29.9381</ele>
        <time>2012-03-13T14:38:27Z</time>
      </trkpt>
      <trkpt lat="59.975712" lon="17.7422391">
        <ele>30.4188</ele>
        <time>2012-03-13T14:38:34Z</time>
      </trkpt>
      <trkpt lat="59.9756866" lon="17.7423466">
        <ele>28.9769</ele>
        <time>2012-03-13T14:38:38Z</time>
      </trkpt>
      <trkpt lat="59.9756321" lon="17.7425545">
        <ele>28.9769</ele>
        <time>2012-03-13T14:38:46Z</time>
      </trkpt>
      <trkpt lat="59.9755601" lon="17.7427583">
        <ele>29.4575</ele>
        <time>2012-03-13T14:38:54Z</time>
      </trkpt>
      <trkpt lat="59.9754877" lon="17.7429995">
        <ele>29.4575</ele>
        <time>2012-03-13T14:39:03Z</time>
      </trkpt>
      <trkpt lat="59.975459" lon="17.7431472">
        <ele>29.9381</ele>
        <time>2012-03-13T14:39:08Z</time>
      </trkpt>
      <trkpt lat="59.9753968" lon="17.743368">
        <ele>30.4188</ele>
        <time>2012-03-13T14:39:15Z</time>
      </trkpt>
      <trkpt lat="59.9753464" lon="17.7436057">
        <ele>31.3801</ele>
        <time>2012-03-13T14:39:23Z</time>
      </trkpt>
      <trkpt lat="59.975326" lon="17.7436906">
        <ele>29.9381</ele>
        <time>2012-03-13T14:39:26Z</time>
      </trkpt>
      <trkpt lat="59.9753136" lon="17.7438097">
        <ele>28.0155</ele>
        <time>2012-03-13T14:39:31Z</time>
      </trkpt>
      <trkpt lat="59.9752782" lon="17.7440035">
        <ele>27.0543</ele>
        <time>2012-03-13T14:39:38Z</time>
      </trkpt>
      <trkpt lat="59.9752375" lon="17.7442221">
        <ele>26.0929</ele>
        <time>2012-03-13T14:39:46Z</time>
      </trkpt>
      <trkpt lat="59.9751986" lon="17.7444194">
        <ele>24.651</ele>
        <time>2012-03-13T14:39:53Z</time>
      </trkpt>
      <trkpt lat="59.9751624" lon="17.7445992">
        <ele>23.6896</ele>
        <time>2012-03-13T14:39:59Z</time>
      </trkpt>
      <trkpt lat="59.9751133" lon="17.7447639">
        <ele>23.6896</ele>
        <time>2012-03-13T14:40:05Z</time>
      </trkpt>
      <trkpt lat="59.9750489" lon="17.7449851">
        <ele>24.1703</ele>
        <time>2012-03-13T14:40:13Z</time>
      </trkpt>
      <trkpt lat="59.9749892" lon="17.7451716">
        <ele>22.2476</ele>
        <time>2012-03-13T14:40:21Z</time>
      </trkpt>
      <trkpt lat="59.9749047" lon="17.7453863">
        <ele>20.8057</ele>
        <time>2012-03-13T14:40:29Z</time>
      </trkpt>
      <trkpt lat="59.9748604" lon="17.7455128">
        <ele>21.767</ele>
        <time>2012-03-13T14:40:34Z</time>
      </trkpt>
      <trkpt lat="59.9747837" lon="17.7456754">
        <ele>24.1703</ele>
        <time>2012-03-13T14:40:40Z</time>
      </trkpt>
      <trkpt lat="59.974691" lon="17.7458534">
        <ele>28.4962</ele>
        <time>2012-03-13T14:40:47Z</time>
      </trkpt>
      <trkpt lat="59.9746257" lon="17.7459927">
        <ele>31.3801</ele>
        <time>2012-03-13T14:40:54Z</time>
      </trkpt>
      <trkpt lat="59.9745485" lon="17.7461262">
        <ele>32.8223</ele>
        <time>2012-03-13T14:41:01Z</time>
      </trkpt>
      <trkpt lat="59.9744926" lon="17.7462329">
        <ele>35.2255</ele>
        <time>2012-03-13T14:41:07Z</time>
      </trkpt>
      <trkpt lat="59.9744081" lon="17.7463458">
        <ele>35.2255</ele>
        <time>2012-03-13T14:41:13Z</time>
      </trkpt>
      <trkpt lat="59.9743035" lon="17.7464805">
        <ele>33.3029</ele>
        <time>2012-03-13T14:41:21Z</time>
      </trkpt>
      <trkpt lat="59.9742201" lon="17.7466122">
        <ele>33.3029</ele>
        <time>2012-03-13T14:41:28Z</time>
      </trkpt>
      <trkpt lat="59.9741476" lon="17.7467086">
        <ele>32.8223</ele>
        <time>2012-03-13T14:41:34Z</time>
      </trkpt>
      <trkpt lat="59.9740671" lon="17.7468233">
        <ele>34.7449</ele>
        <time>2012-03-13T14:41:41Z</time>
      </trkpt>
      <trkpt lat="59.9739654" lon="17.7469364">
        <ele>35.2255</ele>
        <time>2012-03-13T14:41:48Z</time>
      </trkpt>
      <trkpt lat="59.9738873" lon="17.7470308">
        <ele>33.7834</ele>
        <time>2012-03-13T14:41:54Z</time>
      </trkpt>
      <trkpt lat="59.9738259" lon="17.7470944">
        <ele>32.8223</ele>
        <time>2012-03-13T14:41:59Z</time>
      </trkpt>
      <trkpt lat="59.973733" lon="17.7471878">
        <ele>30.8995</ele>
        <time>2012-03-13T14:42:06Z</time>
      </trkpt>
      <trkpt lat="59.9736357" lon="17.7472945">
        <ele>32.3416</ele>
        <time>2012-03-13T14:42:13Z</time>
      </trkpt>
      <trkpt lat="59.9735415" lon="17.7473917">
        <ele>32.8223</ele>
        <time>2012-03-13T14:42:20Z</time>
      </trkpt>
      <trkpt lat="59.9734907" lon="17.7474393">
        <ele>33.3029</ele>
        <time>2012-03-13T14:42:25Z</time>
      </trkpt>
      <trkpt lat="59.9733893" lon="17.7475518">
        <ele>33.7834</ele>
        <time>2012-03-13T14:42:31Z</time>
      </trkpt>
      <trkpt lat="59.9732909" lon="17.7476663">
        <ele>32.8223</ele>
        <time>2012-03-13T14:42:39Z</time>
      </trkpt>
      <trkpt lat="59.9732105" lon="17.7477692">
        <ele>34.2642</ele>
        <time>2012-03-13T14:42:45Z</time>
      </trkpt>
      <trkpt lat="59.9730847" lon="17.7478885">
        <ele>34.2642</ele>
        <time>2012-03-13T14:42:52Z</time>
      </trkpt>
      <trkpt lat="59.9729944" lon="17.7479966">
        <ele>32.8223</ele>
        <time>2012-03-13T14:42:57Z</time>
      </trkpt>
      <trkpt lat="59.9729132" lon="17.7481271">
        <ele>34.7449</ele>
        <time>2012-03-13T14:43:04Z</time>
      </trkpt>
      <trkpt lat="59.9728401" lon="17.7482685">
        <ele>37.6287</ele>
        <time>2012-03-13T14:43:10Z</time>
      </trkpt>
      <trkpt lat="59.972799" lon="17.7483375">
        <ele>38.1094</ele>
        <time>2012-03-13T14:43:13Z</time>
      </trkpt>
      <trkpt lat="59.9727806" lon="17.7484201">
        <ele>38.1094</ele>
        <time>2012-03-13T14:43:17Z</time>
      </trkpt>
      <trkpt lat="59.9727132" lon="17.7485908">
        <ele>37.1481</ele>
        <time>2012-03-13T14:43:25Z</time>
      </trkpt>
      <trkpt lat="59.9726619" lon="17.748706">
        <ele>37.1481</ele>
        <time>2012-03-13T14:43:30Z</time>
      </trkpt>
      <trkpt lat="59.9726234" lon="17.7487674">
        <ele>37.1481</ele>
        <time>2012-03-13T14:43:32Z</time>
      </trkpt>
      <trkpt lat="59.9725641" lon="17.7489514">
        <ele>35.7061</ele>
        <time>2012-03-13T14:43:40Z</time>
      </trkpt>
      <trkpt lat="59.9724678" lon="17.7491155">
        <ele>34.2642</ele>
        <time>2012-03-13T14:43:47Z</time>
      </trkpt>
      <trkpt lat="59.9724154" lon="17.7492412">
        <ele>33.7834</ele>
        <time>2012-03-13T14:43:53Z</time>
      </trkpt>
      <trkpt lat="59.9723506" lon="17.7493747">
        <ele>35.2255</ele>
        <time>2012-03-13T14:43:59Z</time>
      </trkpt>
      <trkpt lat="59.9722929" lon="17.7494981">
        <ele>36.1868</ele>
        <time>2012-03-13T14:44:05Z</time>
      </trkpt>
      <trkpt lat="59.9722624" lon="17.7496056">
        <ele>36.6675</ele>
        <time>2012-03-13T14:44:10Z</time>
      </trkpt>
      <trkpt lat="59.9721925" lon="17.7497383">
        <ele>36.1868</ele>
        <time>2012-03-13T14:44:16Z</time>
      </trkpt>
      <trkpt lat="59.972133" lon="17.7499084">
        <ele>39.5513</ele>
        <time>2012-03-13T14:44:22Z</time>
      </trkpt>
      <trkpt lat="59.9720704" lon="17.7500552">
        <ele>40.0321</ele>
        <time>2012-03-13T14:44:28Z</time>
      </trkpt>
      <trkpt lat="59.9720661" lon="17.7500919">
        <ele>40.5128</ele>
        <time>2012-03-13T14:44:29Z</time>
      </trkpt>
      <trkpt lat="59.972006" lon="17.7502388">
        <ele>40.0321</ele>
        <time>2012-03-13T14:44:35Z</time>
      </trkpt>
      <trkpt lat="59.9719018" lon="17.7504268">
        <ele>38.1094</ele>
        <time>2012-03-13T14:44:44Z</time>
      </trkpt>
      <trkpt lat="59.9718057" lon="17.7505952">
        <ele>37.1481</ele>
        <time>2012-03-13T14:44:52Z</time>
      </trkpt>
      <trkpt lat="59.9717211" lon="17.7507366">
        <ele>36.6675</ele>
        <time>2012-03-13T14:44:59Z</time>
      </trkpt>
      <trkpt lat="59.9716331" lon="17.7508544">
        <ele>36.1868</ele>
        <time>2012-03-13T14:45:05Z</time>
      </trkpt>
      <trkpt lat="59.9716154" lon="17.7508692">
        <ele>36.1868</ele>
        <time>2012-03-13T14:45:06Z</time>
      </trkpt>
      <trkpt lat="59.9715482" lon="17.7509633">
        <ele>35.2255</ele>
        <time>2012-03-13T14:45:11Z</time>
      </trkpt>
      <trkpt lat="59.9714414" lon="17.7511228">
        <ele>34.2642</ele>
        <time>2012-03-13T14:45:18Z</time>
      </trkpt>
      <trkpt lat="59.9713765" lon="17.7512073">
        <ele>34.7449</ele>
        <time>2012-03-13T14:45:24Z</time>
      </trkpt>
      <trkpt lat="59.9712711" lon="17.7513219">
        <ele>32.8223</ele>
        <time>2012-03-13T14:45:32Z</time>
      </trkpt>
      <trkpt lat="59.9711885" lon="17.7514137">
        <ele>30.8995</ele>
        <time>2012-03-13T14:45:37Z</time>
      </trkpt>
      <trkpt lat="59.9711007" lon="17.7515198">
        <ele>29.9381</ele>
        <time>2012-03-13T14:45:45Z</time>
      </trkpt>
      <trkpt lat="59.9710044" lon="17.7516201">
        <ele>30.4188</ele>
        <time>2012-03-13T14:45:52Z</time>
      </trkpt>
      <trkpt lat="59.9709369" lon="17.7517064">
        <ele>31.8607</ele>
        <time>2012-03-13T14:45:58Z</time>
      </trkpt>
      <trkpt lat="59.9708515" lon="17.751834">
        <ele>31.8607</ele>
        <time>2012-03-13T14:46:04Z</time>
      </trkpt>
      <trkpt lat="59.9707793" lon="17.7519486">
        <ele>32.3416</ele>
        <time>2012-03-13T14:46:11Z</time>
      </trkpt>
      <trkpt lat="59.970729" lon="17.7520765">
        <ele>32.3416</ele>
        <time>2012-03-13T14:46:17Z</time>
      </trkpt>
      <trkpt lat="59.9706329" lon="17.7522445">
        <ele>29.9381</ele>
        <time>2012-03-13T14:46:26Z</time>
      </trkpt>
      <trkpt lat="59.9705509" lon="17.7524014">
        <ele>29.4575</ele>
        <time>2012-03-13T14:46:32Z</time>
      </trkpt>
      <trkpt lat="59.9705037" lon="17.7525483">
        <ele>28.9769</ele>
        <time>2012-03-13T14:46:38Z</time>
      </trkpt>
      <trkpt lat="59.9704365" lon="17.7527355">
        <ele>28.4962</ele>
        <time>2012-03-13T14:46:45Z</time>
      </trkpt>
      <trkpt lat="59.9703914" lon="17.7528811">
        <ele>28.9769</ele>
        <time>2012-03-13T14:46:51Z</time>
      </trkpt>
      <trkpt lat="59.9703178" lon="17.7530536">
        <ele>30.8995</ele>
        <time>2012-03-13T14:46:58Z</time>
      </trkpt>
      <trkpt lat="59.9702662" lon="17.7532391">
        <ele>31.8607</ele>
        <time>2012-03-13T14:47:06Z</time>
      </trkpt>
      <trkpt lat="59.970218" lon="17.7534144">
        <ele>32.3416</ele>
        <time>2012-03-13T14:47:13Z</time>
      </trkpt>
      <trkpt lat="59.9702031" lon="17.7534695">
        <ele>31.3801</ele>
        <time>2012-03-13T14:47:15Z</time>
      </trkpt>
      <trkpt lat="59.9701288" lon="17.7536481">
        <ele>30.4188</ele>
        <time>2012-03-13T14:47:22Z</time>
      </trkpt>
      <trkpt lat="59.9700631" lon="17.7537902">
        <ele>30.4188</ele>
        <time>2012-03-13T14:47:28Z</time>
      </trkpt>
      <trkpt lat="59.9699731" lon="17.7539761">
        <ele>29.4575</ele>
        <time>2012-03-13T14:47:36Z</time>
      </trkpt>
      <trkpt lat="59.9698752" lon="17.7541806">
        <ele>28.9769</ele>
        <time>2012-03-13T14:47:45Z</time>
      </trkpt>
      <trkpt lat="59.9697993" lon="17.7543309">
        <ele>28.4962</ele>
        <time>2012-03-13T14:47:52Z</time>
      </trkpt>
      <trkpt lat="59.969716" lon="17.754518">
        <ele>31.3801</ele>
        <time>2012-03-13T14:48:00Z</time>
      </trkpt>
      <trkpt lat="59.9696171" lon="17.7547015">
        <ele>31.8607</ele>
        <time>2012-03-13T14:48:08Z</time>
      </trkpt>
      <trkpt lat="59.9695618" lon="17.7548535">
        <ele>30.4188</ele>
        <time>2012-03-13T14:48:15Z</time>
      </trkpt>
      <trkpt lat="59.9694846" lon="17.7550118">
        <ele>30.4188</ele>
        <time>2012-03-13T14:48:23Z</time>
      </trkpt>
      <trkpt lat="59.9693995" lon="17.7551739">
        <ele>28.9769</ele>
        <time>2012-03-13T14:48:31Z</time>
      </trkpt>
      <trkpt lat="59.9693356" lon="17.7552857">
        <ele>28.9769</ele>
        <time>2012-03-13T14:48:36Z</time>
      </trkpt>
      <trkpt lat="59.9692846" lon="17.7553948">
        <ele>28.4962</ele>
        <time>2012-03-13T14:48:41Z</time>
      </trkpt>
      <trkpt lat="59.969198" lon="17.7555856">
        <ele>30.8995</ele>
        <time>2012-03-13T14:48:49Z</time>
      </trkpt>
      <trkpt lat="59.9691166" lon="17.7557427">
        <ele>30.8995</ele>
        <time>2012-03-13T14:48:57Z</time>
      </trkpt>
      <trkpt lat="59.9691089" lon="17.7557602">
        <ele>30.4188</ele>
        <time>2012-03-13T14:48:58Z</time>
      </trkpt>
      <trkpt lat="59.9691037" lon="17.7557762">
        <ele>30.8995</ele>
        <time>2012-03-13T14:48:59Z</time>
      </trkpt>
      <trkpt lat="59.969089" lon="17.7557026">
        <ele>29.9381</ele>
        <time>2012-03-13T14:49:03Z</time>
      </trkpt>
      <trkpt lat="59.9691636" lon="17.7555043">
        <ele>31.3801</ele>
        <time>2012-03-13T14:49:10Z</time>
      </trkpt>
      <trkpt lat="59.9691933" lon="17.7554295">
        <ele>32.3416</ele>
        <time>2012-03-13T14:49:13Z</time>
      </trkpt>
      <trkpt lat="59.9693119" lon="17.7552033">
        <ele>31.8607</ele>
        <time>2012-03-13T14:49:23Z</time>
      </trkpt>
      <trkpt lat="59.9694291" lon="17.7549988">
        <ele>28.4962</ele>
        <time>2012-03-13T14:49:33Z</time>
      </trkpt>
      <trkpt lat="59.9695052" lon="17.7548361">
        <ele>29.4575</ele>
        <time>2012-03-13T14:49:40Z</time>
      </trkpt>
      <trkpt lat="59.9696191" lon="17.754575">
        <ele>30.4188</ele>
        <time>2012-03-13T14:49:51Z</time>
      </trkpt>
      <trkpt lat="59.9697721" lon="17.7543108">
        <ele>28.0155</ele>
        <time>2012-03-13T14:50:04Z</time>
      </trkpt>
      <trkpt lat="59.9698838" lon="17.7541076">
        <ele>27.0543</ele>
        <time>2012-03-13T14:50:14Z</time>
      </trkpt>
      <trkpt lat="59.9699774" lon="17.7539143">
        <ele>26.5736</ele>
        <time>2012-03-13T14:50:23Z</time>
      </trkpt>
      <trkpt lat="59.9700745" lon="17.7536836">
        <ele>26.5736</ele>
        <time>2012-03-13T14:50:33Z</time>
      </trkpt>
      <trkpt lat="59.9701338" lon="17.7535103">
        <ele>26.5736</ele>
        <time>2012-03-13T14:50:40Z</time>
      </trkpt>
      <trkpt lat="59.9702134" lon="17.7532872">
        <ele>26.0929</ele>
        <time>2012-03-13T14:50:49Z</time>
      </trkpt>
      <trkpt lat="59.9702842" lon="17.753093">
        <ele>26.0929</ele>
        <time>2012-03-13T14:50:57Z</time>
      </trkpt>
      <trkpt lat="59.9703796" lon="17.7528267">
        <ele>25.6123</ele>
        <time>2012-03-13T14:51:08Z</time>
      </trkpt>
      <trkpt lat="59.9704402" lon="17.7526547">
        <ele>25.6123</ele>
        <time>2012-03-13T14:51:15Z</time>
      </trkpt>
      <trkpt lat="59.9705546" lon="17.752389">
        <ele>24.1703</ele>
        <time>2012-03-13T14:51:27Z</time>
      </trkpt>
      <trkpt lat="59.9706636" lon="17.7521891">
        <ele>22.7283</ele>
        <time>2012-03-13T14:51:37Z</time>
      </trkpt>
      <trkpt lat="59.9707949" lon="17.7519946">
        <ele>21.767</ele>
        <time>2012-03-13T14:51:48Z</time>
      </trkpt>
      <trkpt lat="59.9708727" lon="17.7518409">
        <ele>24.651</ele>
        <time>2012-03-13T14:51:55Z</time>
      </trkpt>
      <trkpt lat="59.9709749" lon="17.7516922">
        <ele>25.1317</ele>
        <time>2012-03-13T14:52:03Z</time>
      </trkpt>
      <trkpt lat="59.9710806" lon="17.7515627">
        <ele>25.6123</ele>
        <time>2012-03-13T14:52:11Z</time>
      </trkpt>
      <trkpt lat="59.9711368" lon="17.75147">
        <ele>25.6123</ele>
        <time>2012-03-13T14:52:16Z</time>
      </trkpt>
      <trkpt lat="59.9712382" lon="17.7513622">
        <ele>25.1317</ele>
        <time>2012-03-13T14:52:24Z</time>
      </trkpt>
      <trkpt lat="59.9713641" lon="17.751195">
        <ele>25.6123</ele>
        <time>2012-03-13T14:52:34Z</time>
      </trkpt>
      <trkpt lat="59.9714814" lon="17.7510485">
        <ele>27.0543</ele>
        <time>2012-03-13T14:52:43Z</time>
      </trkpt>
      <trkpt lat="59.9715797" lon="17.7509042">
        <ele>26.5736</ele>
        <time>2012-03-13T14:52:51Z</time>
      </trkpt>
      <trkpt lat="59.9716946" lon="17.7507462">
        <ele>26.5736</ele>
        <time>2012-03-13T14:53:00Z</time>
      </trkpt>
      <trkpt lat="59.9718197" lon="17.7505559">
        <ele>26.5736</ele>
        <time>2012-03-13T14:53:10Z</time>
      </trkpt>
      <trkpt lat="59.9719051" lon="17.7503661">
        <ele>28.0155</ele>
        <time>2012-03-13T14:53:18Z</time>
      </trkpt>
      <trkpt lat="59.9719439" lon="17.7502439">
        <ele>28.4962</ele>
        <time>2012-03-13T14:53:23Z</time>
      </trkpt>
      <trkpt lat="59.9719523" lon="17.7502133">
        <ele>28.9769</ele>
        <time>2012-03-13T14:53:24Z</time>
      </trkpt>
      <trkpt lat="59.9720327" lon="17.750049">
        <ele>29.4575</ele>
        <time>2012-03-13T14:53:32Z</time>
      </trkpt>
      <trkpt lat="59.9720869" lon="17.7499377">
        <ele>28.9769</ele>
        <time>2012-03-13T14:53:38Z</time>
      </trkpt>
      <trkpt lat="59.9721023" lon="17.7498937">
        <ele>28.4962</ele>
        <time>2012-03-13T14:53:40Z</time>
      </trkpt>
      <trkpt lat="59.9721392" lon="17.7498368">
        <ele>27.0543</ele>
        <time>2012-03-13T14:53:44Z</time>
      </trkpt>
      <trkpt lat="59.9721938" lon="17.7497471">
        <ele>25.1317</ele>
        <time>2012-03-13T14:53:49Z</time>
      </trkpt>
      <trkpt lat="59.9722844" lon="17.7496104">
        <ele>22.7283</ele>
        <time>2012-03-13T14:53:56Z</time>
      </trkpt>
      <trkpt lat="59.9723734" lon="17.7494866">
        <ele>19.8444</ele>
        <time>2012-03-13T14:54:03Z</time>
      </trkpt>
      <trkpt lat="59.972431" lon="17.7494001">
        <ele>15.999</ele>
        <time>2012-03-13T14:54:08Z</time>
      </trkpt>
      <trkpt lat="59.9725087" lon="17.7491613">
        <ele>18.8831</ele>
        <time>2012-03-13T14:54:16Z</time>
      </trkpt>
      <trkpt lat="59.9725875" lon="17.7489991">
        <ele>17.9218</ele>
        <time>2012-03-13T14:54:24Z</time>
      </trkpt>
      <trkpt lat="59.9726439" lon="17.7488464">
        <ele>19.8444</ele>
        <time>2012-03-13T14:54:30Z</time>
      </trkpt>
      <trkpt lat="59.9727402" lon="17.7485604">
        <ele>24.651</ele>
        <time>2012-03-13T14:54:40Z</time>
      </trkpt>
      <trkpt lat="59.9727967" lon="17.7483926">
        <ele>26.5736</ele>
        <time>2012-03-13T14:54:46Z</time>
      </trkpt>
      <trkpt lat="59.97291" lon="17.7481749">
        <ele>26.5736</ele>
        <time>2012-03-13T14:54:56Z</time>
      </trkpt>
      <trkpt lat="59.9729799" lon="17.7480584">
        <ele>27.0543</ele>
        <time>2012-03-13T14:55:02Z</time>
      </trkpt>
      <trkpt lat="59.9730815" lon="17.7479258">
        <ele>27.5349</ele>
        <time>2012-03-13T14:55:10Z</time>
      </trkpt>
      <trkpt lat="59.973174" lon="17.7478044">
        <ele>27.0543</ele>
        <time>2012-03-13T14:55:17Z</time>
      </trkpt>
      <trkpt lat="59.9732632" lon="17.7477086">
        <ele>27.5349</ele>
        <time>2012-03-13T14:55:24Z</time>
      </trkpt>
      <trkpt lat="59.9733912" lon="17.7476031">
        <ele>26.5736</ele>
        <time>2012-03-13T14:55:33Z</time>
      </trkpt>
      <trkpt lat="59.9735037" lon="17.7474954">
        <ele>25.6123</ele>
        <time>2012-03-13T14:55:41Z</time>
      </trkpt>
      <trkpt lat="59.9735916" lon="17.747438">
        <ele>25.1317</ele>
        <time>2012-03-13T14:55:47Z</time>
      </trkpt>
      <trkpt lat="59.9736745" lon="17.747348">
        <ele>24.1703</ele>
        <time>2012-03-13T14:55:54Z</time>
      </trkpt>
      <trkpt lat="59.9737302" lon="17.7472193">
        <ele>26.5736</ele>
        <time>2012-03-13T14:56:00Z</time>
      </trkpt>
      <trkpt lat="59.9738031" lon="17.7471531">
        <ele>24.651</ele>
        <time>2012-03-13T14:56:05Z</time>
      </trkpt>
      <trkpt lat="59.9739062" lon="17.7470172">
        <ele>22.2476</ele>
        <time>2012-03-13T14:56:13Z</time>
      </trkpt>
      <trkpt lat="59.9740093" lon="17.7469198">
        <ele>22.2476</ele>
        <time>2012-03-13T14:56:20Z</time>
      </trkpt>
      <trkpt lat="59.9741147" lon="17.7467764">
        <ele>22.7283</ele>
        <time>2012-03-13T14:56:28Z</time>
      </trkpt>
      <trkpt lat="59.9742481" lon="17.746604">
        <ele>24.1703</ele>
        <time>2012-03-13T14:56:38Z</time>
      </trkpt>
      <trkpt lat="59.9743093" lon="17.7464308">
        <ele>29.9381</ele>
        <time>2012-03-13T14:56:44Z</time>
      </trkpt>
      <trkpt lat="59.9744506" lon="17.7462367">
        <ele>31.3801</ele>
        <time>2012-03-13T14:56:55Z</time>
      </trkpt>
      <trkpt lat="59.974558" lon="17.7460838">
        <ele>30.4188</ele>
        <time>2012-03-13T14:57:04Z</time>
      </trkpt>
      <trkpt lat="59.9746438" lon="17.7459558">
        <ele>28.9769</ele>
        <time>2012-03-13T14:57:11Z</time>
      </trkpt>
      <trkpt lat="59.9747433" lon="17.7457527">
        <ele>28.4962</ele>
        <time>2012-03-13T14:57:20Z</time>
      </trkpt>
      <trkpt lat="59.9747773" lon="17.7456816">
        <ele>28.4962</ele>
        <time>2012-03-13T14:57:23Z</time>
      </trkpt>
      <trkpt lat="59.9748293" lon="17.7455635">
        <ele>27.5349</ele>
        <time>2012-03-13T14:57:28Z</time>
      </trkpt>
      <trkpt lat="59.9749163" lon="17.7453185">
        <ele>27.5349</ele>
        <time>2012-03-13T14:57:37Z</time>
      </trkpt>
      <trkpt lat="59.9750096" lon="17.7449504">
        <ele>30.8995</ele>
        <time>2012-03-13T14:57:49Z</time>
      </trkpt>
      <trkpt lat="59.9750832" lon="17.7447003">
        <ele>31.3801</ele>
        <time>2012-03-13T14:57:58Z</time>
      </trkpt>
      <trkpt lat="59.9751167" lon="17.7445531">
        <ele>30.8995</ele>
        <time>2012-03-13T14:58:03Z</time>
      </trkpt>
      <trkpt lat="59.9751832" lon="17.7442737">
        <ele>31.8607</ele>
        <time>2012-03-13T14:58:13Z</time>
      </trkpt>
      <trkpt lat="59.9752453" lon="17.7439615">
        <ele>31.8607</ele>
        <time>2012-03-13T14:58:24Z</time>
      </trkpt>
      <trkpt lat="59.9752954" lon="17.7436992">
        <ele>33.3029</ele>
        <time>2012-03-13T14:58:33Z</time>
      </trkpt>
      <trkpt lat="59.9753313" lon="17.7435263">
        <ele>34.2642</ele>
        <time>2012-03-13T14:58:39Z</time>
      </trkpt>
      <trkpt lat="59.9753661" lon="17.7433004">
        <ele>33.3029</ele>
        <time>2012-03-13T14:58:47Z</time>
      </trkpt>
      <trkpt lat="59.9754116" lon="17.7430781">
        <ele>33.3029</ele>
        <time>2012-03-13T14:58:55Z</time>
      </trkpt>
      <trkpt lat="59.975469" lon="17.7428581">
        <ele>34.2642</ele>
        <time>2012-03-13T14:59:03Z</time>
      </trkpt>
      <trkpt lat="59.9755467" lon="17.742552">
        <ele>34.7449</ele>
        <time>2012-03-13T14:59:14Z</time>
      </trkpt>
      <trkpt lat="59.9756214" lon="17.7422905">
        <ele>34.7449</ele>
        <time>2012-03-13T14:59:24Z</time>
      </trkpt>
      <trkpt lat="59.9757092" lon="17.7419521">
        <ele>34.7449</ele>
        <time>2012-03-13T14:59:37Z</time>
      </trkpt>
      <trkpt lat="59.9757874" lon="17.7416268">
        <ele>33.7834</ele>
        <time>2012-03-13T14:59:49Z</time>
      </trkpt>
      <trkpt lat="59.9758627" lon="17.7413004">
        <ele>33.3029</ele>
        <time>2012-03-13T15:00:01Z</time>
      </trkpt>
      <trkpt lat="59.9759314" lon="17.7410073">
        <ele>32.8223</ele>
        <time>2012-03-13T15:00:12Z</time>
      </trkpt>
      <trkpt lat="59.9760347" lon="17.7406394">
        <ele>32.3416</ele>
        <time>2012-03-13T15:00:26Z</time>
      </trkpt>
      <trkpt lat="59.9761041" lon="17.740435">
        <ele>32.3416</ele>
        <time>2012-03-13T15:00:34Z</time>
      </trkpt>
      <trkpt lat="59.9761668" lon="17.7403607">
        <ele>31.3801</ele>
        <time>2012-03-13T15:00:39Z</time>
      </trkpt>
      <trkpt lat="59.9761754" lon="17.7403364">
        <ele>31.3801</ele>
        <time>2012-03-13T15:00:40Z</time>
      </trkpt>
      <trkpt lat="59.9762273" lon="17.7402031">
        <ele>30.8995</ele>
        <time>2012-03-13T15:00:46Z</time>
      </trkpt>
      <trkpt lat="59.9762833" lon="17.7400327">
        <ele>30.8995</ele>
        <time>2012-03-13T15:00:53Z</time>
      </trkpt>
      <trkpt lat="59.9762983" lon="17.7399272">
        <ele>28.4962</ele>
        <time>2012-03-13T15:00:57Z</time>
      </trkpt>
      <trkpt lat="59.9763196" lon="17.7398672">
        <ele>28.0155</ele>
        <time>2012-03-13T15:01:00Z</time>
      </trkpt>
      <trkpt lat="59.9763357" lon="17.7398123">
        <ele>28.0155</ele>
        <time>2012-03-13T15:01:02Z</time>
      </trkpt>
      <trkpt lat="59.9764235" lon="17.7396304">
        <ele>28.0155</ele>
        <time>2012-03-13T15:01:10Z</time>
      </trkpt>
      <trkpt lat="59.9764735" lon="17.7395563">
        <ele>28.0155</ele>
        <time>2012-03-13T15:01:14Z</time>
      </trkpt>
      <trkpt lat="59.9765246" lon="17.7395041">
        <ele>28.0155</ele>
        <time>2012-03-13T15:01:18Z</time>
      </trkpt>
      <trkpt lat="59.9765812" lon="17.7394698">
        <ele>28.9769</ele>
        <time>2012-03-13T15:01:22Z</time>
      </trkpt>
      <trkpt lat="59.9766169" lon="17.7394533">
        <ele>28.9769</ele>
        <time>2012-03-13T15:01:25Z</time>
      </trkpt>
      <trkpt lat="59.9767034" lon="17.7394118">
        <ele>28.9769</ele>
        <time>2012-03-13T15:01:31Z</time>
      </trkpt>
      <trkpt lat="59.97681" lon="17.7393845">
        <ele>28.4962</ele>
        <time>2012-03-13T15:01:38Z</time>
      </trkpt>
      <trkpt lat="59.9769339" lon="17.7393683">
        <ele>27.0543</ele>
        <time>2012-03-13T15:01:46Z</time>
      </trkpt>
      <trkpt lat="59.9770308" lon="17.7393055">
        <ele>28.0155</ele>
        <time>2012-03-13T15:01:54Z</time>
      </trkpt>
      <trkpt lat="59.9771256" lon="17.7392404">
        <ele>28.0155</ele>
        <time>2012-03-13T15:02:01Z</time>
      </trkpt>
      <trkpt lat="59.9772411" lon="17.739159">
        <ele>28.9769</ele>
        <time>2012-03-13T15:02:09Z</time>
      </trkpt>
      <trkpt lat="59.9773508" lon="17.7390941">
        <ele>29.9381</ele>
        <time>2012-03-13T15:02:17Z</time>
      </trkpt>
      <trkpt lat="59.9774276" lon="17.7390467">
        <ele>30.8995</ele>
        <time>2012-03-13T15:02:23Z</time>
      </trkpt>
      <trkpt lat="59.9775359" lon="17.7390036">
        <ele>32.8223</ele>
        <time>2012-03-13T15:02:30Z</time>
      </trkpt>
      <trkpt lat="59.9776197" lon="17.7389839">
        <ele>33.3029</ele>
        <time>2012-03-13T15:02:36Z</time>
      </trkpt>
      <trkpt lat="59.9777254" lon="17.7389897">
        <ele>33.3029</ele>
        <time>2012-03-13T15:02:43Z</time>
      </trkpt>
      <trkpt lat="59.9778528" lon="17.739033">
        <ele>34.2642</ele>
        <time>2012-03-13T15:02:51Z</time>
      </trkpt>
      <trkpt lat="59.9779161" lon="17.7390481">
        <ele>33.3029</ele>
        <time>2012-03-13T15:02:56Z</time>
      </trkpt>
      <trkpt lat="59.9779766" lon="17.7390658">
        <ele>34.2642</ele>
        <time>2012-03-13T15:03:00Z</time>
      </trkpt>
      <trkpt lat="59.9780782" lon="17.7391487">
        <ele>36.1868</ele>
        <time>2012-03-13T15:03:07Z</time>
      </trkpt>
      <trkpt lat="59.9781744" lon="17.7391661">
        <ele>36.1868</ele>
        <time>2012-03-13T15:03:13Z</time>
      </trkpt>
      <trkpt lat="59.9782761" lon="17.7391786">
        <ele>33.7834</ele>
        <time>2012-03-13T15:03:20Z</time>
      </trkpt>
      <trkpt lat="59.9783859" lon="17.7391979">
        <ele>31.3801</ele>
        <time>2012-03-13T15:03:28Z</time>
      </trkpt>
      <trkpt lat="59.9784526" lon="17.7392363">
        <ele>30.8995</ele>
        <time>2012-03-13T15:03:33Z</time>
      </trkpt>
      <trkpt lat="59.9785722" lon="17.7392761">
        <ele>29.4575</ele>
        <time>2012-03-13T15:03:41Z</time>
      </trkpt>
      <trkpt lat="59.9786727" lon="17.7392925">
        <ele>30.4188</ele>
        <time>2012-03-13T15:03:47Z</time>
      </trkpt>
      <trkpt lat="59.9787667" lon="17.739286">
        <ele>31.3801</ele>
        <time>2012-03-13T15:03:53Z</time>
      </trkpt>
      <trkpt lat="59.9788257" lon="17.7392916">
        <ele>31.3801</ele>
        <time>2012-03-13T15:03:57Z</time>
      </trkpt>
      <trkpt lat="59.9788396" lon="17.7392884">
        <ele>31.3801</ele>
        <time>2012-03-13T15:03:58Z</time>
      </trkpt>
      <trkpt lat="59.9789267" lon="17.7392201">
        <ele>31.3801</ele>
        <time>2012-03-13T15:04:04Z</time>
      </trkpt>
      <trkpt lat="59.9790257" lon="17.739202">
        <ele>30.4188</ele>
        <time>2012-03-13T15:04:11Z</time>
      </trkpt>
      <trkpt lat="59.9791381" lon="17.7391638">
        <ele>30.4188</ele>
        <time>2012-03-13T15:04:19Z</time>
      </trkpt>
      <trkpt lat="59.9792154" lon="17.7391132">
        <ele>30.4188</ele>
        <time>2012-03-13T15:04:25Z</time>
      </trkpt>
      <trkpt lat="59.9792913" lon="17.7390429">
        <ele>30.8995</ele>
        <time>2012-03-13T15:04:31Z</time>
      </trkpt>
      <trkpt lat="59.9793337" lon="17.7390212">
        <ele>31.3801</ele>
        <time>2012-03-13T15:04:34Z</time>
      </trkpt>
      <trkpt lat="59.9794259" lon="17.738967">
        <ele>32.3416</ele>
        <time>2012-03-13T15:04:41Z</time>
      </trkpt>
      <trkpt lat="59.9794732" lon="17.7389248">
        <ele>32.3416</ele>
        <time>2012-03-13T15:04:45Z</time>
      </trkpt>
      <trkpt lat="59.979521" lon="17.7389026">
        <ele>30.8995</ele>
        <time>2012-03-13T15:04:49Z</time>
      </trkpt>
      <trkpt lat="59.979624" lon="17.738857">
        <ele>30.4188</ele>
        <time>2012-03-13T15:04:56Z</time>
      </trkpt>
      <trkpt lat="59.9796893" lon="17.738833">
        <ele>31.3801</ele>
        <time>2012-03-13T15:05:00Z</time>
      </trkpt>
      <trkpt lat="59.9797027" lon="17.7388239">
        <ele>31.8607</ele>
        <time>2012-03-13T15:05:01Z</time>
      </trkpt>
      <trkpt lat="59.9797976" lon="17.7387735">
        <ele>34.2642</ele>
        <time>2012-03-13T15:05:07Z</time>
      </trkpt>
      <trkpt lat="59.9798938" lon="17.7387618">
        <ele>33.3029</ele>
        <time>2012-03-13T15:05:13Z</time>
      </trkpt>
      <trkpt lat="59.979984" lon="17.7387659">
        <ele>33.3029</ele>
        <time>2012-03-13T15:05:19Z</time>
      </trkpt>
      <trkpt lat="59.9801006" lon="17.7387607">
        <ele>35.7061</ele>
        <time>2012-03-13T15:05:26Z</time>
      </trkpt>
      <trkpt lat="59.9801954" lon="17.7387451">
        <ele>38.1094</ele>
        <time>2012-03-13T15:05:33Z</time>
      </trkpt>
      <trkpt lat="59.9802679" lon="17.7387574">
        <ele>40.9934</ele>
        <time>2012-03-13T15:05:38Z</time>
      </trkpt>
      <trkpt lat="59.9803451" lon="17.7387414">
        <ele>40.9934</ele>
        <time>2012-03-13T15:05:44Z</time>
      </trkpt>
      <trkpt lat="59.98043" lon="17.7387172">
        <ele>41.9547</ele>
        <time>2012-03-13T15:05:50Z</time>
      </trkpt>
      <trkpt lat="59.9804848" lon="17.7386545">
        <ele>45.3192</ele>
        <time>2012-03-13T15:05:55Z</time>
      </trkpt>
      <trkpt lat="59.9805227" lon="17.7386498">
        <ele>47.2418</ele>
        <time>2012-03-13T15:05:58Z</time>
      </trkpt>
      <trkpt lat="59.9805636" lon="17.738669">
        <ele>46.2806</ele>
        <time>2012-03-13T15:06:01Z</time>
      </trkpt>
      <trkpt lat="59.9806761" lon="17.7386492">
        <ele>49.1646</ele>
        <time>2012-03-13T15:06:09Z</time>
      </trkpt>
      <trkpt lat="59.9807385" lon="17.738613">
        <ele>49.6453</ele>
        <time>2012-03-13T15:06:13Z</time>
      </trkpt>
      <trkpt lat="59.980807" lon="17.7385745">
        <ele>48.684</ele>
        <time>2012-03-13T15:06:17Z</time>
      </trkpt>
      <trkpt lat="59.9808769" lon="17.738543">
        <ele>47.2418</ele>
        <time>2012-03-13T15:06:21Z</time>
      </trkpt>
      <trkpt lat="59.9808988" lon="17.7385354">
        <ele>47.2418</ele>
        <time>2012-03-13T15:06:23Z</time>
      </trkpt>
      <trkpt lat="59.9809511" lon="17.7385177">
        <ele>47.7225</ele>
        <time>2012-03-13T15:06:27Z</time>
      </trkpt>
      <trkpt lat="59.9810229" lon="17.7385025">
        <ele>49.1646</ele>
        <time>2012-03-13T15:06:34Z</time>
      </trkpt>
      <trkpt lat="59.9811087" lon="17.7384735">
        <ele>47.2418</ele>
        <time>2012-03-13T15:06:40Z</time>
      </trkpt>
      <trkpt lat="59.9811745" lon="17.7384633">
        <ele>49.6453</ele>
        <time>2012-03-13T15:06:45Z</time>
      </trkpt>
      <trkpt lat="59.9812563" lon="17.73845">
        <ele>51.5679</ele>
        <time>2012-03-13T15:06:50Z</time>
      </trkpt>
      <trkpt lat="59.9813795" lon="17.7384113">
        <ele>52.5292</ele>
        <time>2012-03-13T15:06:58Z</time>
      </trkpt>
      <trkpt lat="59.9814417" lon="17.7383691">
        <ele>54.4518</ele>
        <time>2012-03-13T15:07:02Z</time>
      </trkpt>
      <trkpt lat="59.9815696" lon="17.7383032">
        <ele>53.9712</ele>
        <time>2012-03-13T15:07:09Z</time>
      </trkpt>
      <trkpt lat="59.981583" lon="17.7382996">
        <ele>53.9712</ele>
        <time>2012-03-13T15:07:10Z</time>
      </trkpt>
      <trkpt lat="59.9816529" lon="17.7383105">
        <ele>51.5679</ele>
        <time>2012-03-13T15:07:15Z</time>
      </trkpt>
      <trkpt lat="59.9817222" lon="17.7382884">
        <ele>53.9712</ele>
        <time>2012-03-13T15:07:20Z</time>
      </trkpt>
      <trkpt lat="59.9818006" lon="17.7382551">
        <ele>53.0098</ele>
        <time>2012-03-13T15:07:25Z</time>
      </trkpt>
      <trkpt lat="59.9818472" lon="17.7381985">
        <ele>54.4518</ele>
        <time>2012-03-13T15:07:28Z</time>
      </trkpt>
      <trkpt lat="59.9819617" lon="17.738154">
        <ele>53.4905</ele>
        <time>2012-03-13T15:07:36Z</time>
      </trkpt>
      <trkpt lat="59.9820277" lon="17.7381204">
        <ele>54.4518</ele>
        <time>2012-03-13T15:07:41Z</time>
      </trkpt>
      <trkpt lat="59.9820439" lon="17.7381162">
        <ele>53.9712</ele>
        <time>2012-03-13T15:07:42Z</time>
      </trkpt>
      <trkpt lat="59.9821856" lon="17.73808">
        <ele>54.4518</ele>
        <time>2012-03-13T15:07:50Z</time>
      </trkpt>
      <trkpt lat="59.9822962" lon="17.7380438">
        <ele>50.6066</ele>
        <time>2012-03-13T15:07:57Z</time>
      </trkpt>
      <trkpt lat="59.9823757" lon="17.7380096">
        <ele>51.0872</ele>
        <time>2012-03-13T15:08:03Z</time>
      </trkpt>
      <trkpt lat="59.9824517" lon="17.7380275">
        <ele>49.1646</ele>
        <time>2012-03-13T15:08:08Z</time>
      </trkpt>
      <trkpt lat="59.9825181" lon="17.7380381">
        <ele>47.7225</ele>
        <time>2012-03-13T15:08:12Z</time>
      </trkpt>
      <trkpt lat="59.9826341" lon="17.7380786">
        <ele>45.3192</ele>
        <time>2012-03-13T15:08:20Z</time>
      </trkpt>
      <trkpt lat="59.9826579" lon="17.7380681">
        <ele>46.2806</ele>
        <time>2012-03-13T15:08:22Z</time>
      </trkpt>
      <trkpt lat="59.9826973" lon="17.7380774">
        <ele>44.8386</ele>
        <time>2012-03-13T15:08:25Z</time>
      </trkpt>
      <trkpt lat="59.982773" lon="17.7380681">
        <ele>47.2418</ele>
        <time>2012-03-13T15:08:30Z</time>
      </trkpt>
      <trkpt lat="59.9828445" lon="17.7380821">
        <ele>46.2806</ele>
        <time>2012-03-13T15:08:34Z</time>
      </trkpt>
      <trkpt lat="59.9829262" lon="17.7380553">
        <ele>48.2034</ele>
        <time>2012-03-13T15:08:41Z</time>
      </trkpt>
      <trkpt lat="59.9829973" lon="17.7380669">
        <ele>47.2418</ele>
        <time>2012-03-13T15:08:46Z</time>
      </trkpt>
      <trkpt lat="59.9831007" lon="17.7380229">
        <ele>43.3966</ele>
        <time>2012-03-13T15:08:53Z</time>
      </trkpt>
      <trkpt lat="59.9831996" lon="17.7380483">
        <ele>40.9934</ele>
        <time>2012-03-13T15:08:59Z</time>
      </trkpt>
      <trkpt lat="59.9832576" lon="17.7380432">
        <ele>40.5128</ele>
        <time>2012-03-13T15:09:03Z</time>
      </trkpt>
      <trkpt lat="59.983348" lon="17.7380468">
        <ele>42.4354</ele>
        <time>2012-03-13T15:09:09Z</time>
      </trkpt>
      <trkpt lat="59.9833639" lon="17.7380514">
        <ele>42.4354</ele>
        <time>2012-03-13T15:09:10Z</time>
      </trkpt>
      <trkpt lat="59.9833775" lon="17.7380879">
        <ele>41.474</ele>
        <time>2012-03-13T15:09:13Z</time>
      </trkpt>
      <trkpt lat="59.9832871" lon="17.7381594">
        <ele>38.5901</ele>
        <time>2012-03-13T15:09:18Z</time>
      </trkpt>
      <trkpt lat="59.9832235" lon="17.7381814">
        <ele>39.5513</ele>
        <time>2012-03-13T15:09:22Z</time>
      </trkpt>
      <trkpt lat="59.9832097" lon="17.7381824">
        <ele>39.0707</ele>
        <time>2012-03-13T15:09:23Z</time>
      </trkpt>
      <trkpt lat="59.9830955" lon="17.7382158">
        <ele>42.4354</ele>
        <time>2012-03-13T15:09:30Z</time>
      </trkpt>
      <trkpt lat="59.9830271" lon="17.738239">
        <ele>44.358</ele>
        <time>2012-03-13T15:09:34Z</time>
      </trkpt>
      <trkpt lat="59.9829579" lon="17.738185">
        <ele>46.7612</ele>
        <time>2012-03-13T15:09:40Z</time>
      </trkpt>
      <trkpt lat="59.9829106" lon="17.7381803">
        <ele>47.7225</ele>
        <time>2012-03-13T15:09:43Z</time>
      </trkpt>
      <trkpt lat="59.9828304" lon="17.7381814">
        <ele>49.1646</ele>
        <time>2012-03-13T15:09:48Z</time>
      </trkpt>
      <trkpt lat="59.9827445" lon="17.7381674">
        <ele>52.5292</ele>
        <time>2012-03-13T15:09:54Z</time>
      </trkpt>
      <trkpt lat="59.9826964" lon="17.7381634">
        <ele>53.0098</ele>
        <time>2012-03-13T15:09:58Z</time>
      </trkpt>
      <trkpt lat="59.9826355" lon="17.7381495">
        <ele>53.9712</ele>
        <time>2012-03-13T15:10:04Z</time>
      </trkpt>
      <trkpt lat="59.9825998" lon="17.7381509">
        <ele>53.0098</ele>
        <time>2012-03-13T15:10:07Z</time>
      </trkpt>
      <trkpt lat="59.982573" lon="17.7381194">
        <ele>53.4905</ele>
        <time>2012-03-13T15:10:10Z</time>
      </trkpt>
      <trkpt lat="59.982528" lon="17.7381417">
        <ele>53.9712</ele>
        <time>2012-03-13T15:10:12Z</time>
      </trkpt>
      <trkpt lat="59.9824317" lon="17.7381596">
        <ele>51.5679</ele>
        <time>2012-03-13T15:10:17Z</time>
      </trkpt>
      <trkpt lat="59.9824037" lon="17.7381718">
        <ele>50.6066</ele>
        <time>2012-03-13T15:10:18Z</time>
      </trkpt>
      <trkpt lat="59.9823125" lon="17.738214">
        <ele>50.6066</ele>
        <time>2012-03-13T15:10:23Z</time>
      </trkpt>
      <trkpt lat="59.9822042" lon="17.738266">
        <ele>50.126</ele>
        <time>2012-03-13T15:10:29Z</time>
      </trkpt>
      <trkpt lat="59.982133" lon="17.7382939">
        <ele>49.6453</ele>
        <time>2012-03-13T15:10:34Z</time>
      </trkpt>
      <trkpt lat="59.982068" lon="17.738309">
        <ele>50.126</ele>
        <time>2012-03-13T15:10:39Z</time>
      </trkpt>
      <trkpt lat="59.9819949" lon="17.7383526">
        <ele>48.684</ele>
        <time>2012-03-13T15:10:44Z</time>
      </trkpt>
      <trkpt lat="59.98198" lon="17.7383602">
        <ele>48.2034</ele>
        <time>2012-03-13T15:10:45Z</time>
      </trkpt>
      <trkpt lat="59.9819178" lon="17.7383818">
        <ele>46.7612</ele>
        <time>2012-03-13T15:10:50Z</time>
      </trkpt>
      <trkpt lat="59.9818223" lon="17.7384411">
        <ele>47.2418</ele>
        <time>2012-03-13T15:10:56Z</time>
      </trkpt>
      <trkpt lat="59.9817665" lon="17.7384605">
        <ele>46.2806</ele>
        <time>2012-03-13T15:11:00Z</time>
      </trkpt>
      <trkpt lat="59.9816741" lon="17.7384855">
        <ele>45.3192</ele>
        <time>2012-03-13T15:11:07Z</time>
      </trkpt>
      <trkpt lat="59.9816559" lon="17.7384975">
        <ele>45.7999</ele>
        <time>2012-03-13T15:11:08Z</time>
      </trkpt>
      <trkpt lat="59.9815687" lon="17.7385105">
        <ele>45.3192</ele>
        <time>2012-03-13T15:11:15Z</time>
      </trkpt>
      <trkpt lat="59.9814591" lon="17.7385348">
        <ele>46.2806</ele>
        <time>2012-03-13T15:11:22Z</time>
      </trkpt>
      <trkpt lat="59.9813319" lon="17.7386566">
        <ele>47.2418</ele>
        <time>2012-03-13T15:11:28Z</time>
      </trkpt>
      <trkpt lat="59.9812391" lon="17.7387445">
        <ele>47.2418</ele>
        <time>2012-03-13T15:11:32Z</time>
      </trkpt>
      <trkpt lat="59.9811796" lon="17.7388134">
        <ele>45.7999</ele>
        <time>2012-03-13T15:11:35Z</time>
      </trkpt>
      <trkpt lat="59.9811065" lon="17.7387812">
        <ele>42.4354</ele>
        <time>2012-03-13T15:11:41Z</time>
      </trkpt>
      <trkpt lat="59.9810173" lon="17.7387674">
        <ele>38.5901</ele>
        <time>2012-03-13T15:11:47Z</time>
      </trkpt>
      <trkpt lat="59.9809779" lon="17.7387838">
        <ele>38.5901</ele>
        <time>2012-03-13T15:11:50Z</time>
      </trkpt>
      <trkpt lat="59.9809345" lon="17.738773">
        <ele>38.5901</ele>
        <time>2012-03-13T15:11:54Z</time>
      </trkpt>
      <trkpt lat="59.9808613" lon="17.7388229">
        <ele>38.5901</ele>
        <time>2012-03-13T15:11:59Z</time>
      </trkpt>
      <trkpt lat="59.9808413" lon="17.7388361">
        <ele>38.5901</ele>
        <time>2012-03-13T15:12:00Z</time>
      </trkpt>
      <trkpt lat="59.9807489" lon="17.7388242">
        <ele>35.7061</ele>
        <time>2012-03-13T15:12:06Z</time>
      </trkpt>
      <trkpt lat="59.980731" lon="17.738828">
        <ele>36.1868</ele>
        <time>2012-03-13T15:12:07Z</time>
      </trkpt>
      <trkpt lat="59.9806797" lon="17.7388426">
        <ele>37.1481</ele>
        <time>2012-03-13T15:12:12Z</time>
      </trkpt>
      <trkpt lat="59.9805648" lon="17.7389161">
        <ele>40.9934</ele>
        <time>2012-03-13T15:12:18Z</time>
      </trkpt>
      <trkpt lat="59.9805321" lon="17.7389317">
        <ele>40.9934</ele>
        <time>2012-03-13T15:12:20Z</time>
      </trkpt>
      <trkpt lat="59.9804985" lon="17.7389472">
        <ele>42.4354</ele>
        <time>2012-03-13T15:12:22Z</time>
      </trkpt>
      <trkpt lat="59.9804384" lon="17.7389393">
        <ele>41.474</ele>
        <time>2012-03-13T15:12:26Z</time>
      </trkpt>
      <trkpt lat="59.9803835" lon="17.7389244">
        <ele>38.5901</ele>
        <time>2012-03-13T15:12:30Z</time>
      </trkpt>
      <trkpt lat="59.9803487" lon="17.7389172">
        <ele>37.1481</ele>
        <time>2012-03-13T15:12:33Z</time>
      </trkpt>
      <trkpt lat="59.9803151" lon="17.7389171">
        <ele>36.6675</ele>
        <time>2012-03-13T15:12:36Z</time>
      </trkpt>
      <trkpt lat="59.9802654" lon="17.7388939">
        <ele>35.2255</ele>
        <time>2012-03-13T15:12:41Z</time>
      </trkpt>
      <trkpt lat="59.9802426" lon="17.7388902">
        <ele>35.2255</ele>
        <time>2012-03-13T15:12:43Z</time>
      </trkpt>
      <trkpt lat="59.9801985" lon="17.7388716">
        <ele>35.2255</ele>
        <time>2012-03-13T15:12:47Z</time>
      </trkpt>
      <trkpt lat="59.9800949" lon="17.7388467">
        <ele>35.2255</ele>
        <time>2012-03-13T15:12:55Z</time>
      </trkpt>
      <trkpt lat="59.9800166" lon="17.7388428">
        <ele>37.6287</ele>
        <time>2012-03-13T15:13:00Z</time>
      </trkpt>
      <trkpt lat="59.9799315" lon="17.7388537">
        <ele>40.0321</ele>
        <time>2012-03-13T15:13:05Z</time>
      </trkpt>
      <trkpt lat="59.9798746" lon="17.7388573">
        <ele>40.5128</ele>
        <time>2012-03-13T15:13:09Z</time>
      </trkpt>
      <trkpt lat="59.9797643" lon="17.7388871">
        <ele>40.9934</ele>
        <time>2012-03-13T15:13:15Z</time>
      </trkpt>
      <trkpt lat="59.9796664" lon="17.7389397">
        <ele>40.5128</ele>
        <time>2012-03-13T15:13:20Z</time>
      </trkpt>
      <trkpt lat="59.9796084" lon="17.7389828">
        <ele>40.5128</ele>
        <time>2012-03-13T15:13:23Z</time>
      </trkpt>
      <trkpt lat="59.9795256" lon="17.7390295">
        <ele>37.6287</ele>
        <time>2012-03-13T15:13:30Z</time>
      </trkpt>
      <trkpt lat="59.9794303" lon="17.7390542">
        <ele>35.7061</ele>
        <time>2012-03-13T15:13:37Z</time>
      </trkpt>
      <trkpt lat="59.9793622" lon="17.7390896">
        <ele>32.3416</ele>
        <time>2012-03-13T15:13:43Z</time>
      </trkpt>
      <trkpt lat="59.9792971" lon="17.7391304">
        <ele>30.8995</ele>
        <time>2012-03-13T15:13:49Z</time>
      </trkpt>
      <trkpt lat="59.9792216" lon="17.7391738">
        <ele>29.4575</ele>
        <time>2012-03-13T15:13:54Z</time>
      </trkpt>
      <trkpt lat="59.9791871" lon="17.7391881">
        <ele>29.4575</ele>
        <time>2012-03-13T15:13:57Z</time>
      </trkpt>
      <trkpt lat="59.9790992" lon="17.739245">
        <ele>29.4575</ele>
        <time>2012-03-13T15:14:03Z</time>
      </trkpt>
      <trkpt lat="59.9790573" lon="17.739291">
        <ele>29.9381</ele>
        <time>2012-03-13T15:14:06Z</time>
      </trkpt>
      <trkpt lat="59.9789635" lon="17.7393538">
        <ele>30.4188</ele>
        <time>2012-03-13T15:14:12Z</time>
      </trkpt>
      <trkpt lat="59.9788958" lon="17.7394057">
        <ele>30.8995</ele>
        <time>2012-03-13T15:14:17Z</time>
      </trkpt>
      <trkpt lat="59.97889" lon="17.7394251">
        <ele>30.8995</ele>
        <time>2012-03-13T15:14:18Z</time>
      </trkpt>
    </trkseg>
  </trk>
</gpx>